Accueil
Images satellite Prévisions 15 joursClimatMétéo marine Cyclones Foudre AéroportsFAQ Actualités A propos
Météo : Europe Afrique Amérique du Nord Amérique du Sud Asie Australie-Océanie Autres
Langues Contact

Carcassonne, France

Salvaza

latitude: 43-13N, longitude: 002-19E, altitude: 130 m


METAR: LFMK 301900Z AUTO 27008KT 230V290 9999 NSC 23/16 Q1015
short-TAF: périmé (7763 heures)
long-TAF: LFMK 301700Z 3018/3118 28015KT 9999 NSC BECMG 3112/3114 32015G25KT

Heure: 21:12 (19:12 UTC)

Observation

Le bulletin a été fait il y a 12 minutes, à 19:00 UTC  
Vent 08 kt de ouest, variant entre sud-ouest et ouest/nord-ouest
Température 23°C
Humidité 65%
Pression 1015 hPa
Visibilité 10 km ou plus

Changer d'unités

Prévision

Le bulletin a été fait il y a 1 heure et 57 minutes, à 17:15 UTC  
Prévision valable du 30 à 18 UTC au 31 à 18 UTC
Vent 15 kt de ouest
Visibilité 10 km ou plus
Evoluant progressivement
du 31 à 12 UTC au 31 à 14 UTC
Vent 15 kt de nord-ouest avec des rafales jusqu'à 25 kt
Les informations qui figurent sur ce site font l'objet d'une clause de non-responsabilité
Météo : Europe Afrique Amérique du Nord Amérique du Sud Asie Australie-Océanie Autres
Images satellite Prévisions 15 joursClimatMétéo marine Cyclones Foudre AéroportsFAQ Langues Contact Actualités A propos